KAPG/APG METAR and TAF weather

Enter ICAO airport designator
Station Type Date Time Source
KAPG METAR 2022/01/29 10:28 UTC NOAA

KAPG 291028Z AUTO 35012G19KT 2 1/2SM R22/3500FT -SN BR OVC019 M06/M07 A2981 RMK AO2 VIS 2 1/2V3 SLP099 PNO $


Station Type Date Time Source
KAPG Decoded METAR 2022/01/29 10:28 UTC NOAA

Phillips Army Air Field / Aberdeen, MD, United States (KAPG) 39-28N 076-10W
Jan 29, 2022 - 05:28 AM EST / 2022.01.29 1028 UTC
Wind: from the N (350 degrees) at 14 MPH (12 KT) gusting to 22 MPH (19 KT):0
Visibility: 2 1/2 mile(s):0
Sky conditions: overcast
Weather: light snow; mist
Temperature: 21 F (-6 C)
Windchill: 8 F (-13 C):1
Dew Point: 19 F (-7 C)
Relative Humidity: 92%
Pressure (altimeter): 29.81 in. Hg (1009 hPa)
ob: KAPG 291028Z AUTO 35012G19KT 2 1/2SM R22/3500FT -SN BR OVC019 M06/M07 A2981 RMK AO2 VIS 2 1/2V3 SLP099 PNO
cycle: 10

Station Type Date Time Source
KAPG TAF UTC NOAA

Error!

Example: see airport list